Time;durP1;ratioP1;P1;durP2;ratioP2;P2;SDS_P1;SDS_P2;PMS_P1;PMS_P2;Temp;Humidity;BMP_temperature;BMP_pressure;BME280_temperature;BME280_humidity;BME280_pressure;Samples;Min_cycle;Max_cycle;Signal;HPM_P1;HPM_P2
2020/12/01 00:01:53;;;;;;;52.10;36.75;;;5.80;93.60;;;;;;5029683;28;20403;-70
2020/12/01 00:04:20;;;;;;;53.03;36.10;;;5.70;93.70;;;;;;5021093;28;20431;-70
2020/12/01 00:06:46;;;;;;;52.35;36.65;;;5.90;93.10;;;;;;5030501;28;20387;-70
2020/12/01 00:09:13;;;;;;;52.35;35.53;;;5.70;93.40;;;;;;5027867;28;20406;-69
2020/12/01 00:11:39;;;;;;;52.33;36.67;;;5.70;93.00;;;;;;5011986;28;20488;-70
2020/12/01 00:14:05;;;;;;;50.65;35.10;;;5.60;93.30;;;;;;5030348;28;20840;-70
2020/12/01 00:16:31;;;;;;;50.20;36.08;;;5.60;93.30;;;;;;5030624;28;20415;-70
2020/12/01 00:18:59;;;;;;;48.60;35.25;;;5.60;93.20;;;;;;5030947;28;20425;-70
2020/12/01 00:21:26;;;;;;;53.95;36.85;;;5.50;93.40;;;;;;5033646;28;20418;-70
2020/12/01 00:23:52;;;;;;;52.47;34.90;;;5.50;93.50;;;;;;5033442;28;20453;-70
2020/12/01 00:26:20;;;;;;;50.28;36.60;;;5.50;93.40;;;;;;5033547;28;20438;-70
2020/12/01 00:28:47;;;;;;;50.13;34.78;;;5.40;93.50;;;;;;5033242;28;20422;-69
2020/12/01 00:31:14;;;;;;;50.08;35.30;;;5.50;93.40;;;;;;5033125;28;20399;-70
2020/12/01 00:33:40;;;;;;;53.25;36.95;;;5.50;93.20;;;;;;5034068;28;20449;-70
2020/12/01 00:36:07;;;;;;;48.53;34.67;;;5.50;93.00;;;;;;5035101;28;20773;-70
2020/12/01 00:38:33;;;;;;;49.78;35.13;;;5.50;93.00;;;;;;5033938;28;20395;-69
2020/12/01 00:40:59;;;;;;;49.30;35.75;;;5.40;92.90;;;;;;5035025;28;20427;-70
2020/12/01 00:43:25;;;;;;;51.72;35.80;;;5.30;93.40;;;;;;5033814;28;20431;-70
2020/12/01 00:45:51;;;;;;;51.97;36.13;;;5.20;93.60;;;;;;5033893;28;20395;-70
2020/12/01 00:48:20;;;;;;;49.60;35.70;;;5.10;93.50;;;;;;5034994;28;20937;-70
2020/12/01 00:50:46;;;;;;;47.53;34.10;;;5.10;93.70;;;;;;5035024;28;20391;-70
2020/12/01 00:53:12;;;;;;;47.72;34.35;;;5.10;93.70;;;;;;5033634;28;20461;-70
2020/12/01 00:55:39;;;;;;;47.30;33.38;;;5.10;93.40;;;;;;5035234;28;20434;-69
2020/12/01 00:58:05;;;;;;;50.13;34.78;;;5.10;93.50;;;;;;5034866;28;20431;-70
2020/12/01 01:00:32;;;;;;;47.50;33.42;;;5.10;93.50;;;;;;5033443;28;20450;-70
2020/12/01 01:02:58;;;;;;;51.65;33.10;;;5.10;93.60;;;;;;5034938;28;20486;-70
2020/12/01 01:05:24;;;;;;;46.70;33.37;;;5.20;93.30;;;;;;5033393;28;20898;-70
2020/12/01 01:07:51;;;;;;;45.72;33.20;;;5.10;93.40;;;;;;5033410;28;20388;-70
2020/12/01 01:10:19;;;;;;;49.45;33.95;;;5.10;93.00;;;;;;5033240;28;20407;-70
2020/12/01 01:12:49;;;;;;;48.00;33.80;;;5.20;92.80;;;;;;5034443;28;20505;-70
2020/12/01 01:15:15;;;;;;;46.85;32.20;;;5.20;92.70;;;;;;5034641;28;20421;-70
2020/12/01 01:17:41;;;;;;;45.92;34.17;;;5.10;92.90;;;;;;5032332;28;20506;-69
2020/12/01 01:20:09;;;;;;;45.95;32.78;;;5.10;93.00;;;;;;5034381;28;20474;-70
2020/12/01 01:22:35;;;;;;;46.72;32.83;;;5.10;93.00;;;;;;5033170;28;20407;-70
2020/12/01 01:25:01;;;;;;;49.03;33.70;;;5.00;93.10;;;;;;5029711;28;20494;-70
2020/12/01 01:27:27;;;;;;;48.67;33.33;;;5.00;93.20;;;;;;5033537;28;20387;-70
2020/12/01 01:29:53;;;;;;;47.00;33.07;;;5.00;93.30;;;;;;5033999;28;20414;-69
2020/12/01 01:32:19;;;;;;;48.43;34.60;;;4.90;93.40;;;;;;5031789;28;20531;-70
2020/12/01 01:34:45;;;;;;;46.08;32.20;;;4.80;93.10;;;;;;5032350;28;20419;-70
2020/12/01 01:37:11;;;;;;;45.78;32.03;;;4.90;93.20;;;;;;5029068;28;20411;-69
2020/12/01 01:39:37;;;;;;;47.40;33.70;;;5.10;92.90;;;;;;5029812;28;20399;-70
2020/12/01 01:42:05;;;;;;;44.97;32.95;;;5.10;92.90;;;;;;5032657;28;20499;-70
2020/12/01 01:44:31;;;;;;;45.15;31.67;;;5.00;92.90;;;;;;5032633;28;20493;-70
2020/12/01 01:47:01;;;;;;;46.13;32.95;;;5.00;92.80;;;;;;5032682;28;20466;-69
2020/12/01 01:49:34;;;;;;;43.78;32.10;;;5.10;92.70;;;;;;5023368;28;20413;-70
2020/12/01 01:52:02;;;;;;;44.03;31.10;;;5.00;92.80;;;;;;5020940;28;20390;-70
2020/12/01 01:54:30;;;;;;;43.83;31.17;;;4.90;93.00;;;;;;5032588;28;20427;-70
2020/12/01 01:56:59;;;;;;;46.10;32.25;;;4.90;92.90;;;;;;5033638;28;20909;-70
2020/12/01 01:59:26;;;;;;;45.72;32.42;;;4.90;93.00;;;;;;5022016;28;20393;-70
2020/12/01 02:01:53;;;;;;;45.33;32.00;;;4.80;93.20;;;;;;5039711;22;20407;-78
2020/12/01 02:04:20;;;;;;;43.50;31.13;;;4.90;93.10;;;;;;5032071;28;20450;-80
2020/12/01 02:06:50;;;;;;;43.30;31.08;;;4.80;93.00;;;;;;5033416;28;20485;-80
2020/12/01 02:09:18;;;;;;;43.17;30.98;;;4.80;93.30;;;;;;5033488;28;20405;-80
2020/12/01 02:11:45;;;;;;;42.53;30.52;;;4.70;93.30;;;;;;5033335;28;20486;-80
2020/12/01 02:14:15;;;;;;;45.00;30.75;;;4.80;93.00;;;;;;5033186;28;20423;-80
2020/12/01 02:16:43;;;;;;;41.22;29.48;;;4.70;93.20;;;;;;5033463;28;20881;-80
2020/12/01 02:19:12;;;;;;;42.88;29.95;;;4.80;92.80;;;;;;5022010;28;20498;-80
2020/12/01 02:21:40;;;;;;;41.95;29.15;;;4.80;92.70;;;;;;5031397;28;20450;-78
2020/12/01 02:24:07;;;;;;;41.20;28.20;;;4.70;92.90;;;;;;5033226;28;20474;-80
2020/12/01 02:26:35;;;;;;;42.80;29.97;;;4.70;93.10;;;;;;5031687;28;20454;-80
2020/12/01 02:29:04;;;;;;;42.63;30.50;;;4.90;92.50;;;;;;5015385;28;20427;-80
2020/12/01 02:31:32;;;;;;;40.83;28.98;;;4.80;92.70;;;;;;5032973;28;20445;-80
2020/12/01 02:33:58;;;;;;;40.53;29.75;;;4.90;92.40;;;;;;5033195;28;20451;-80
2020/12/01 02:36:24;;;;;;;40.60;28.15;;;4.90;92.20;;;;;;5014985;28;20411;-80
2020/12/01 02:38:50;;;;;;;40.70;29.30;;;4.90;92.40;;;;;;5014994;28;20782;-80
2020/12/01 02:41:16;;;;;;;41.40;28.98;;;4.80;92.50;;;;;;5032221;28;20426;-80
2020/12/01 02:43:43;;;;;;;42.05;29.73;;;4.90;92.40;;;;;;5032717;28;20391;-80
2020/12/01 02:46:08;;;;;;;39.63;28.17;;;4.90;92.30;;;;;;5015038;28;20404;-80
2020/12/01 02:48:34;;;;;;;39.22;28.20;;;4.90;92.20;;;;;;5014295;28;20813;-80
2020/12/01 02:51:00;;;;;;;42.00;29.88;;;5.00;91.70;;;;;;5015015;28;20434;-80
2020/12/01 02:53:26;;;;;;;43.27;29.53;;;5.00;91.60;;;;;;5014811;28;20471;-79
2020/12/01 02:55:52;;;;;;;36.97;27.17;;;4.90;91.90;;;;;;5032937;28;20395;-80
2020/12/01 02:58:18;;;;;;;38.55;28.33;;;4.90;91.80;;;;;;5033177;28;20395;-80
2020/12/01 03:00:44;;;;;;;38.65;27.67;;;4.80;91.90;;;;;;5032076;28;20478;-79
2020/12/01 03:03:11;;;;;;;40.35;27.95;;;4.80;91.70;;;;;;5032265;28;20420;-80
2020/12/01 03:05:37;;;;;;;42.58;28.85;;;4.80;91.80;;;;;;5032355;28;20384;-80
2020/12/01 03:08:05;;;;;;;38.72;28.30;;;4.70;92.20;;;;;;5034189;28;20893;-79
2020/12/01 03:10:31;;;;;;;38.92;27.83;;;4.70;92.20;;;;;;5032330;28;20454;-80
2020/12/01 03:12:57;;;;;;;38.87;28.33;;;4.70;92.10;;;;;;5032442;28;20811;-80
2020/12/01 03:15:23;;;;;;;41.20;27.65;;;4.70;92.10;;;;;;5032419;28;20472;-80
2020/12/01 03:17:50;;;;;;;40.83;27.88;;;4.60;92.20;;;;;;5040813;28;20415;-79
2020/12/01 03:20:16;;;;;;;36.60;27.65;;;4.60;92.30;;;;;;5032309;28;20391;-80
2020/12/01 03:22:42;;;;;;;39.28;27.23;;;4.60;92.50;;;;;;5032255;28;20394;-80
2020/12/01 03:25:07;;;;;;;37.97;27.70;;;4.70;92.10;;;;;;5032305;28;20393;-80
2020/12/01 03:27:33;;;;;;;39.88;28.13;;;4.70;92.20;;;;;;5045510;28;20470;-79
2020/12/01 03:29:59;;;;;;;40.30;28.63;;;4.70;92.20;;;;;;5032831;28;20399;-80
2020/12/01 03:32:25;;;;;;;39.10;26.77;;;4.60;92.40;;;;;;5032248;28;20391;-80
2020/12/01 03:34:52;;;;;;;37.78;26.08;;;4.60;92.00;;;;;;5032123;28;20395;-80
2020/12/01 03:37:18;;;;;;;36.25;26.65;;;4.60;92.00;;;;;;5032219;28;20467;-79
2020/12/01 03:39:44;;;;;;;39.38;26.63;;;4.70;91.80;;;;;;5031999;28;20413;-80
2020/12/01 03:42:10;;;;;;;38.00;26.77;;;4.60;92.10;;;;;;5022716;28;20407;-80
2020/12/01 03:44:36;;;;;;;38.67;27.33;;;4.60;92.00;;;;;;5032007;28;20457;-79
2020/12/01 03:47:02;;;;;;;37.17;26.38;;;4.50;92.30;;;;;;5032014;28;20398;-80
2020/12/01 03:49:28;;;;;;;38.65;26.33;;;4.50;96.30;;;;;;5030756;28;20403;-80
2020/12/01 03:51:55;;;;;;;39.73;26.87;;;;;;;;;;5033207;28;20936;-80
2020/12/01 03:54:20;;;;;;;37.92;27.13;;;5.00;98.90;;;;;;5034831;28;20470;-79
2020/12/01 03:56:46;;;;;;;38.03;26.85;;;4.30;93.00;;;;;;5034688;28;20842;-79
2020/12/01 03:59:12;;;;;;;36.80;26.83;;;4.50;92.30;;;;;;5036079;28;20893;-79
2020/12/01 04:01:38;;;;;;;39.15;27.08;;;4.40;92.50;;;;;;5029767;28;20442;-79
2020/12/01 04:04:04;;;;;;;36.08;25.98;;;4.50;92.10;;;;;;5035836;28;20857;-79
2020/12/01 04:06:30;;;;;;;37.13;26.17;;;4.50;92.00;;;;;;5035943;28;20415;-79
2020/12/01 04:08:59;;;;;;;35.65;26.70;;;4.50;92.10;;;;;;5034449;28;20402;-80
2020/12/01 04:11:25;;;;;;;36.45;26.92;;;4.70;91.80;;;;;;5035902;28;20401;-79
2020/12/01 04:13:51;;;;;;;38.28;26.58;;;4.70;91.80;;;;;;5035702;28;20402;-80
2020/12/01 04:16:18;;;;;;;37.33;25.47;;;4.60;91.80;;;;;;5034313;28;20411;-79
2020/12/01 04:18:44;;;;;;;37.43;26.47;;;4.60;92.00;;;;;;5035703;28;20415;-79
2020/12/01 04:21:10;;;;;;;36.10;25.70;;;4.50;92.00;;;;;;5035334;28;20422;-80
2020/12/01 04:23:36;;;;;;;34.88;25.63;;;4.60;92.00;;;;;;5034091;28;20399;-80
2020/12/01 04:26:02;;;;;;;37.72;27.55;;;4.70;91.60;;;;;;5033787;28;20399;-79
2020/12/01 04:28:28;;;;;;;36.58;26.15;;;4.60;92.10;;;;;;5035206;28;20446;-79
2020/12/01 04:30:54;;;;;;;35.40;25.35;;;4.50;92.00;;;;;;5035063;28;20418;-78
2020/12/01 04:33:20;;;;;;;35.93;25.77;;;4.40;92.10;;;;;;5035180;28;20386;-79
2020/12/01 04:35:46;;;;;;;35.53;25.45;;;4.40;92.00;;;;;;5035049;28;20395;-80
2020/12/01 04:38:14;;;;;;;37.83;25.83;;;4.40;92.20;;;;;;5034983;28;20402;-79
2020/12/01 04:40:42;;;;;;;39.33;25.58;;;4.50;91.80;;;;;;5017283;28;20418;-80
2020/12/01 04:43:15;;;;;;;39.88;26.80;;;4.40;92.00;;;;;;5030443;28;20433;-80
2020/12/01 04:45:43;;;;;;;39.00;26.98;;;4.40;92.20;;;;;;5034986;28;20915;-80
2020/12/01 04:48:15;;;;;;;36.67;25.20;;;4.40;92.10;;;;;;5033519;28;20403;-80
2020/12/01 04:50:45;;;;;;;34.90;24.65;;;4.40;91.90;;;;;;5033576;28;20452;-80
2020/12/01 04:53:56;;;;;;;35.03;25.13;;;4.40;91.90;;;;;;5034779;28;20394;-80
2020/12/01 04:56:56;;;;;;;34.60;24.73;;;4.30;92.20;;;;;;5023057;28;20456;-80
2020/12/01 04:59:47;;;;;;;36.28;24.70;;;4.20;92.80;;;;;;5034817;28;20423;-79
2020/12/01 05:02:32;;;;;;;34.63;25.35;;;4.20;92.50;;;;;;5032796;28;25105;-80
2020/12/01 05:08:35;;;;;;;34.83;24.65;;;4.40;91.80;;;;;;5034401;28;20483;-79
2020/12/01 05:11:05;;;;;;;36.63;25.63;;;4.40;91.90;;;;;;5033162;28;20409;-80
2020/12/01 05:13:33;;;;;;;33.53;23.83;;;4.40;91.70;;;;;;5032965;28;20769;-80
2020/12/01 05:16:14;;;;;;;35.97;24.60;;;4.50;91.50;;;;;;5034529;28;20426;-80
2020/12/01 05:18:41;;;;;;;33.20;23.45;;;4.40;92.00;;;;;;5034595;28;20477;-80
2020/12/01 05:21:09;;;;;;;34.53;24.35;;;4.30;92.20;;;;;;5029224;28;20399;-80
2020/12/01 05:23:39;;;;;;;34.60;25.20;;;4.20;92.20;;;;;;5006583;28;20443;-80
2020/12/01 05:26:07;;;;;;;32.33;23.83;;;4.30;91.80;;;;;;5015870;28;20510;-80
2020/12/01 05:28:43;;;;;;;35.67;26.00;;;4.30;91.80;;;;;;5033950;28;20496;-80
2020/12/01 05:31:10;;;;;;;34.08;23.73;;;4.30;91.80;;;;;;5034342;28;21038;-80
2020/12/01 05:33:36;;;;;;;33.67;24.15;;;4.20;92.20;;;;;;5034372;28;20399;-80
2020/12/01 05:36:05;;;;;;;32.58;23.45;;;4.30;91.90;;;;;;5034203;28;20481;-79
2020/12/01 05:38:33;;;;;;;32.25;23.35;;;4.30;91.90;;;;;;5032973;28;20460;-80
2020/12/01 05:41:01;;;;;;;36.00;25.00;;;4.40;91.40;;;;;;5033922;28;20917;-80
2020/12/01 05:43:34;;;;;;;32.38;22.73;;;4.40;91.50;;;;;;5018344;28;20401;-80
2020/12/01 05:46:20;;;;;;;35.45;25.30;;;4.40;91.70;;;;;;5026055;28;20405;-80
2020/12/01 05:49:02;;;;;;;34.72;24.30;;;4.30;91.90;;;;;;5023804;28;20443;-80
2020/12/01 05:51:36;;;;;;;31.85;23.80;;;4.30;91.70;;;;;;5029449;28;20746;-80
2020/12/01 05:54:03;;;;;;;33.42;24.27;;;4.40;91.90;;;;;;5033861;28;20431;-80
2020/12/01 05:56:29;;;;;;;34.03;24.20;;;4.40;92.00;;;;;;5032547;28;20937;-80
2020/12/01 05:58:59;;;;;;;34.78;24.23;;;4.30;92.10;;;;;;5015980;28;20411;-80
2020/12/01 06:01:26;;;;;;;35.92;25.15;;;4.30;92.20;;;;;;5023974;28;20483;-79
2020/12/01 06:04:05;;;;;;;36.25;24.48;;;4.60;91.40;;;;;;5033030;28;20529;-79
2020/12/01 06:06:43;;;;;;;34.08;24.00;;;4.50;91.30;;;;;;5014997;28;20410;-79
2020/12/01 06:09:16;;;;;;;34.00;24.73;;;4.50;91.40;;;;;;5033295;28;20430;-79
2020/12/01 06:11:46;;;;;;;33.28;24.58;;;4.40;91.40;;;;;;5032993;28;20920;-80
2020/12/01 06:14:15;;;;;;;32.63;23.77;;;4.30;91.70;;;;;;5032459;28;20426;-79
2020/12/01 06:16:48;;;;;;;34.95;24.33;;;4.30;91.60;;;;;;5031178;28;20448;-80
2020/12/01 06:19:22;;;;;;;35.33;24.75;;;4.30;91.40;;;;;;5031967;28;20427;-80
2020/12/01 06:22:21;;;;;;;33.78;23.27;;;4.30;91.50;;;;;;5033521;28;20540;-80
2020/12/01 06:25:21;;;;;;;31.15;22.88;;;4.20;91.80;;;;;;5015439;28;20521;-80
2020/12/01 06:28:13;;;;;;;34.58;24.17;;;4.20;91.90;;;;;;5027778;28;20457;-80
2020/12/01 06:31:07;;;;;;;31.25;22.30;;;4.20;91.80;;;;;;5013582;28;20445;-80
2020/12/01 06:34:08;;;;;;;33.72;23.20;;;4.30;91.60;;;;;;5028722;28;20537;-80
2020/12/01 06:37:09;;;;;;;34.63;23.55;;;4.40;91.30;;;;;;5013619;28;20442;-80
2020/12/01 06:39:46;;;;;;;33.97;23.73;;;4.40;91.40;;;;;;5032820;28;20482;-80
2020/12/01 06:42:17;;;;;;;42.47;25.77;;;4.40;91.20;;;;;;5033386;28;20441;-77
2020/12/01 06:44:45;;;;;;;36.03;25.15;;;4.40;91.20;;;;;;5032758;28;20889;-80
2020/12/01 06:47:11;;;;;;;35.60;25.25;;;5.10;94.00;;;;;;5033697;28;20440;-80
2020/12/01 06:49:39;;;;;;;33.50;24.92;;;4.20;92.40;;;;;;5034117;28;20394;-80
2020/12/01 06:52:11;;;;;;;35.38;24.48;;;4.30;92.10;;;;;;5032745;28;20391;-82
2020/12/01 06:54:46;;;;;;;34.42;24.73;;;4.30;91.70;;;;;;5033680;28;20918;-80
2020/12/01 06:57:23;;;;;;;33.33;24.10;;;4.40;91.30;;;;;;5020072;28;20940;-80
2020/12/01 06:59:49;;;;;;;35.45;25.20;;;4.40;91.70;;;;;;5014906;28;20805;-78
2020/12/01 07:02:18;;;;;;;38.73;26.20;;;4.50;91.20;;;;;;5030144;28;20414;-80
2020/12/01 07:04:47;;;;;;;36.22;26.52;;;4.40;91.50;;;;;;5023647;28;20423;-81
2020/12/01 07:07:26;;;;;;;36.55;24.65;;;4.30;91.60;;;;;;5030700;28;20396;-81
2020/12/01 07:09:53;;;;;;;34.90;24.55;;;4.30;91.90;;;;;;5013978;28;20447;-81
2020/12/01 07:12:46;;;;;;;34.70;24.35;;;4.10;92.20;;;;;;5012373;28;20405;-80
2020/12/01 07:15:14;;;;;;;34.00;24.65;;;4.10;91.90;;;;;;5025543;28;20872;-79
2020/12/01 07:17:50;;;;;;;35.67;25.63;;;4.10;92.10;;;;;;5026815;28;20453;-81
2020/12/01 07:20:36;;;;;;;36.55;25.73;;;4.10;92.10;;;;;;5022923;28;25130;-81
2020/12/01 07:23:13;;;;;;;35.58;25.67;;;4.10;92.10;;;;;;4995993;28;20392;-80
2020/12/01 07:25:46;;;;;;;35.53;23.92;;;4.20;92.10;;;;;;5028076;28;20498;-81
2020/12/01 07:28:19;;;;;;;35.72;25.33;;;4.20;92.40;;;;;;5031159;28;20813;-81
2020/12/01 07:30:52;;;;;;;37.97;26.23;;;4.20;92.00;;;;;;5028413;28;20418;-80
2020/12/01 07:33:22;;;;;;;36.70;25.83;;;4.30;91.90;;;;;;5031222;28;20418;-81
2020/12/01 07:35:50;;;;;;;36.65;26.15;;;4.30;91.70;;;;;;5028223;28;20916;-81
2020/12/01 07:39:55;;;;;;;35.17;24.83;;;4.40;91.50;;;;;;5149102;27;20475;-79
2020/12/01 07:42:30;;;;;;;36.63;24.73;;;4.50;91.00;;;;;;5146838;27;20411;-79
2020/12/01 07:44:56;;;;;;;36.45;25.73;;;4.50;90.80;;;;;;5149556;27;20534;-80
2020/12/01 07:47:25;;;;;;;37.60;25.30;;;4.30;91.60;;;;;;5150613;27;20413;-81
2020/12/01 07:50:03;;;;;;;34.47;24.70;;;4.20;91.90;;;;;;5150021;27;20397;-79
2020/12/01 07:52:33;;;;;;;33.70;25.73;;;4.10;92.00;;;;;;5148460;27;20464;-80
2020/12/01 07:55:03;;;;;;;34.42;24.23;;;4.00;92.30;;;;;;5146034;27;20786;-79
2020/12/01 07:57:29;;;;;;;36.38;25.65;;;4.10;92.20;;;;;;5145845;27;20386;-81
2020/12/01 07:59:58;;;;;;;35.80;25.25;;;4.20;91.90;;;;;;5150253;27;20408;-82
2020/12/01 08:02:27;;;;;;;38.40;26.52;;;4.30;91.60;;;;;;5125516;28;20457;-81
2020/12/01 08:05:01;;;;;;;38.35;25.65;;;4.30;91.70;;;;;;5115516;28;20483;-81
2020/12/01 08:07:27;;;;;;;38.60;25.33;;;4.30;91.50;;;;;;5116211;28;20441;-81
2020/12/01 08:10:05;;;;;;;39.13;26.30;;;4.40;91.60;;;;;;5125006;28;20391;-80
2020/12/01 08:12:35;;;;;;;36.78;26.20;;;4.40;91.40;;;;;;5126579;28;25090;-80
2020/12/01 08:15:03;;;;;;;37.70;26.70;;;4.30;91.70;;;;;;5122979;28;20441;-81
2020/12/01 08:17:32;;;;;;;38.67;26.33;;;4.30;91.60;;;;;;5127288;28;20417;-82
2020/12/01 08:19:58;;;;;;;37.63;26.35;;;4.40;91.50;;;;;;5124072;28;20385;-81
2020/12/01 08:22:30;;;;;;;35.00;25.05;;;4.30;91.80;;;;;;5128768;28;20394;-81
2020/12/01 08:25:03;;;;;;;37.05;25.50;;;4.40;91.50;;;;;;5102417;28;20451;-81
2020/12/01 08:27:43;;;;;;;37.83;26.33;;;4.40;91.30;;;;;;5099033;28;20498;-81
2020/12/01 08:30:20;;;;;;;38.13;26.77;;;4.50;91.30;;;;;;5124704;28;25130;-81
2020/12/01 08:32:50;;;;;;;38.25;26.40;;;4.50;91.30;;;;;;5104792;28;20393;-80
2020/12/01 08:35:26;;;;;;;40.20;27.25;;;4.30;91.80;;;;;;5119339;28;20396;-80
2020/12/01 08:38:02;;;;;;;37.75;26.50;;;4.30;92.10;;;;;;5097771;28;25094;-81
2020/12/01 08:40:37;;;;;;;37.08;26.05;;;4.40;91.90;;;;;;5133391;28;20380;-80
2020/12/01 08:43:20;;;;;;;39.08;28.15;;;4.30;92.10;;;;;;5113670;28;20417;-81
2020/12/01 08:45:53;;;;;;;38.20;28.02;;;4.50;91.60;;;;;;5125397;28;25106;-81
2020/12/01 08:48:26;;;;;;;40.13;27.33;;;4.50;91.30;;;;;;5129669;28;20466;-80
2020/12/01 08:51:05;;;;;;;42.05;27.90;;;4.50;91.40;;;;;;5111547;28;20365;-80
2020/12/01 08:53:44;;;;;;;39.97;26.95;;;4.50;91.70;;;;;;5115477;28;20398;-82
2020/12/01 08:56:25;;;;;;;39.30;27.17;;;4.50;91.90;;;;;;5109447;28;25129;-80
2020/12/01 08:58:54;;;;;;;40.25;27.42;;;4.60;91.20;;;;;;5103809;28;20404;-80
2020/12/01 09:01:20;;;;;;;41.25;28.13;;;4.60;91.10;;;;;;5092082;28;66641;-81
2020/12/01 09:03:55;;;;;;;38.03;27.23;;;4.60;91.50;;;;;;5122615;27;20412;-81
2020/12/01 09:06:26;;;;;;;41.45;29.05;;;4.50;91.70;;;;;;5078177;28;20445;-81
2020/12/01 09:08:57;;;;;;;42.78;28.98;;;4.60;91.50;;;;;;5120060;27;20469;-84
2020/12/01 09:13:55;;;;;;;51.35;36.15;;;4.70;91.30;;;;;;5134741;27;20393;-82
2020/12/01 09:22:07;;;;;;;38.15;27.05;;;4.80;91.10;;;;;;5090120;28;20488;-81
2020/12/01 09:24:33;;;;;;;40.47;26.30;;;4.80;91.40;;;;;;5096851;28;20407;-82
2020/12/01 09:27:05;;;;;;;39.92;26.92;;;4.80;91.50;;;;;;5093959;28;20730;-81
2020/12/01 09:29:31;;;;;;;37.83;26.63;;;4.80;91.20;;;;;;5097028;28;20982;-81
2020/12/01 09:31:59;;;;;;;39.93;27.10;;;4.80;91.30;;;;;;5103847;27;20391;-81
2020/12/01 09:34:29;;;;;;;36.90;26.38;;;4.80;91.20;;;;;;5122256;27;20438;-81
2020/12/01 09:37:01;;;;;;;35.83;27.02;;;4.70;91.40;;;;;;5119216;27;20738;-81
2020/12/01 09:39:27;;;;;;;38.20;26.63;;;4.70;91.50;;;;;;5103219;27;20436;-82
2020/12/01 09:42:02;;;;;;;41.58;27.30;;;4.70;91.80;;;;;;5089789;28;20911;-81
2020/12/01 09:47:22;;;;;;;41.88;27.90;;;4.70;91.70;;;;;;5111924;27;20423;-82
2020/12/01 09:49:48;;;;;;;43.57;30.17;;;4.80;91.60;;;;;;5094148;28;20903;-81
2020/12/01 09:52:18;;;;;;;50.10;32.55;;;4.70;91.90;;;;;;5120482;27;20382;-82
2020/12/01 09:55:04;;;;;;;49.40;32.38;;;4.60;92.20;;;;;;5120445;27;20380;-80
2020/12/01 10:12:44;;;;;;;41.13;29.77;;;4.80;92.30;;;;;;5100496;28;20421;-80
2020/12/01 10:36:27;;;;;;;47.63;33.38;;;4.90;92.90;;;;;;5034274;28;20408;-81
2020/12/01 10:38:54;;;;;;;45.53;32.42;;;4.90;92.90;;;;;;5119859;27;20403;-81
2020/12/01 10:41:27;;;;;;;44.45;32.08;;;4.90;93.00;;;;;;5123390;27;20394;-81
2020/12/01 10:43:52;;;;;;;49.90;33.30;;;4.90;93.00;;;;;;5105559;28;20425;-81
2020/12/01 10:46:18;;;;;;;44.58;33.33;;;4.90;93.30;;;;;;5104099;27;20390;-81
2020/12/01 10:48:45;;;;;;;43.63;32.25;;;4.80;93.60;;;;;;5114803;27;20397;-82
2020/12/01 10:51:11;;;;;;;42.55;31.42;;;4.80;93.90;;;;;;5094256;28;20437;-81
2020/12/01 10:53:37;;;;;;;46.87;31.27;;;5.00;93.60;;;;;;5109946;27;20432;-81
2020/12/01 10:56:03;;;;;;;47.05;32.30;;;5.20;93.30;;;;;;5122292;27;20743;-81
2020/12/01 10:58:29;;;;;;;47.67;32.67;;;5.20;93.20;;;;;;5094638;28;20412;-81
2020/12/01 11:00:55;;;;;;;48.88;31.90;;;5.30;93.00;;;;;;5109569;27;20382;-81
2020/12/01 11:03:21;;;;;;;44.72;31.55;;;5.30;93.10;;;;;;5109485;27;20453;-82
2020/12/01 11:05:48;;;;;;;45.58;31.25;;;5.30;93.00;;;;;;5124611;27;20743;-81
2020/12/01 11:08:14;;;;;;;45.58;31.23;;;5.30;92.90;;;;;;5124975;27;20795;-81
2020/12/01 11:10:40;;;;;;;42.15;31.00;;;5.30;93.00;;;;;;5112960;28;20400;-82
2020/12/01 11:13:08;;;;;;;40.50;29.95;;;5.40;92.60;;;;;;5103533;28;20400;-81
2020/12/01 11:15:34;;;;;;;39.20;28.08;;;5.40;92.50;;;;;;5092901;28;20389;-82
2020/12/01 11:18:00;;;;;;;38.33;28.93;;;5.40;92.60;;;;;;5093531;28;20413;-82
2020/12/01 11:20:25;;;;;;;44.83;31.30;;;5.50;92.60;;;;;;5092937;28;20382;-83
2020/12/01 11:22:52;;;;;;;45.08;32.70;;;5.40;92.90;;;;;;5093245;28;20393;-82
2020/12/01 11:25:20;;;;;;;43.47;31.88;;;5.40;93.00;;;;;;5092943;28;20958;-82
2020/12/01 11:27:46;;;;;;;45.55;32.42;;;5.50;92.80;;;;;;5074392;28;20408;-81
2020/12/01 11:30:13;;;;;;;51.10;35.45;;;5.40;92.90;;;;;;5092824;28;20481;-81
2020/12/01 11:32:39;;;;;;;45.35;33.72;;;5.40;93.20;;;;;;5092257;28;20892;-81
2020/12/01 11:35:05;;;;;;;47.45;33.45;;;5.50;93.00;;;;;;5092274;28;20393;-82
2020/12/01 11:37:32;;;;;;;47.20;34.88;;;5.50;92.90;;;;;;5092065;28;20382;-81
2020/12/01 11:39:59;;;;;;;40.88;30.52;;;5.50;93.10;;;;;;5092415;28;20799;-82
2020/12/01 11:42:25;;;;;;;45.97;32.38;;;5.40;93.20;;;;;;5092278;28;20394;-81
2020/12/01 11:44:51;;;;;;;41.90;31.33;;;5.50;93.10;;;;;;5092216;28;20401;-82
2020/12/01 11:47:17;;;;;;;51.85;37.50;;;5.50;93.20;;;;;;5102846;28;20386;-81
2020/12/01 11:49:43;;;;;;;52.65;37.58;;;5.50;93.40;;;;;;5092852;28;20385;-81
2020/12/01 11:52:09;;;;;;;54.10;39.60;;;5.30;93.90;;;;;;5092494;28;20896;-82
2020/12/01 11:54:37;;;;;;;52.05;36.75;;;5.30;94.10;;;;;;5092878;28;20388;-81
2020/12/01 11:57:04;;;;;;;54.08;37.97;;;5.30;94.10;;;;;;5093293;28;20385;-82
2020/12/01 11:59:30;;;;;;;55.25;39.55;;;5.30;94.30;;;;;;5092949;28;20410;-81
2020/12/01 12:01:56;;;;;;;54.13;40.55;;;5.30;94.50;;;;;;5092046;28;20410;-81
2020/12/01 12:04:22;;;;;;;56.25;40.95;;;5.30;94.60;;;;;;5099142;28;20392;-82
2020/12/01 12:06:48;;;;;;;58.17;41.90;;;5.40;94.40;;;;;;5097834;28;20386;-81
2020/12/01 12:09:14;;;;;;;54.45;38.90;;;;;;;;;;5077751;28;20394;-81
2020/12/01 12:11:40;;;;;;;49.83;38.07;;;5.40;94.30;;;;;;5091762;28;20756;-80
2020/12/01 12:14:08;;;;;;;49.35;35.35;;;5.70;94.10;;;;;;5091478;28;20447;-82
2020/12/01 12:16:34;;;;;;;44.97;34.40;;;5.70;93.90;;;;;;5102379;28;20401;-81
2020/12/01 12:19:00;;;;;;;45.10;33.58;;;5.80;93.90;;;;;;5110107;28;20404;-81
2020/12/01 12:21:26;;;;;;;44.35;34.22;;;5.90;93.50;;;;;;5112814;28;20463;-81
2020/12/01 12:23:52;;;;;;;45.15;34.67;;;5.70;94.00;;;;;;5132567;28;20391;-81
2020/12/01 12:26:19;;;;;;;44.78;35.00;;;5.50;93.80;;;;;;5110870;28;20449;-82
2020/12/01 12:28:45;;;;;;;50.25;37.88;;;5.40;94.20;;;;;;5134890;27;20406;-81
2020/12/01 12:31:13;;;;;;;47.75;37.30;;;5.30;94.90;;;;;;5134058;27;20384;-81
2020/12/01 12:33:39;;;;;;;48.20;37.00;;;5.30;95.60;;;;;;5125511;27;20481;-82
2020/12/01 12:36:05;;;;;;;52.58;39.20;;;5.20;95.60;;;;;;5113402;28;20501;-81
2020/12/01 12:38:31;;;;;;;50.67;38.40;;;5.20;95.50;;;;;;5126639;27;20430;-82
2020/12/01 12:40:58;;;;;;;49.78;37.60;;;5.30;95.90;;;;;;5102648;28;20805;-80
2020/12/01 12:43:26;;;;;;;50.38;39.70;;;5.20;95.60;;;;;;5095035;28;20500;-82
2020/12/01 12:45:52;;;;;;;58.92;44.30;;;5.20;96.00;;;;;;5096701;28;20388;-82
2020/12/01 12:48:21;;;;;;;47.85;37.75;;;5.20;95.60;;;;;;5105719;27;20413;-81
2020/12/01 12:50:47;;;;;;;51.90;39.55;;;5.30;95.60;;;;;;5130133;27;20430;-82
2020/12/01 12:53:14;;;;;;;47.67;37.43;;;5.50;95.60;;;;;;5119465;27;20748;-80
2020/12/01 12:55:40;;;;;;;46.47;35.03;;;5.60;95.50;;;;;;5128759;27;20449;-82
2020/12/01 12:58:05;;;;;;;48.42;37.67;;;5.70;95.60;;;;;;5119620;27;20419;-82
2020/12/01 13:00:32;;;;;;;50.15;37.13;;;5.70;95.70;;;;;;5111793;27;20404;-82
2020/12/01 13:02:59;;;;;;;49.83;38.42;;;5.70;95.70;;;;;;5094171;28;20442;-81
2020/12/01 13:05:26;;;;;;;49.15;38.30;;;5.70;96.00;;;;;;5115533;27;20400;-81
2020/12/01 13:07:52;;;;;;;50.40;39.07;;;5.70;95.90;;;;;;5114453;27;20885;-81
2020/12/01 13:10:18;;;;;;;54.47;41.83;;;5.60;96.10;;;;;;5114984;27;20404;-79
2020/12/01 13:12:44;;;;;;;53.17;40.40;;;5.60;96.30;;;;;;5113816;27;20408;-81
2020/12/01 13:15:11;;;;;;;50.40;38.95;;;5.60;95.90;;;;;;5104399;27;20434;-82
2020/12/01 13:17:40;;;;;;;46.63;37.58;;;5.60;95.80;;;;;;5124766;27;20402;-82
2020/12/01 13:20:07;;;;;;;52.25;39.53;;;5.70;95.40;;;;;;5110244;28;20418;-81
2020/12/01 13:22:34;;;;;;;52.20;39.67;;;5.70;95.50;;;;;;5127362;27;20818;-81
2020/12/01 13:25:00;;;;;;;54.70;41.45;;;5.70;95.30;;;;;;5128839;27;20390;-78
2020/12/01 13:27:26;;;;;;;61.58;47.22;;;5.70;95.30;;;;;;5117554;27;20455;-81
2020/12/01 13:29:52;;;;;;;60.92;46.35;;;5.60;95.50;;;;;;5090926;28;20396;-83
2020/12/01 13:32:18;;;;;;;57.70;45.00;;;5.50;95.80;;;;;;5111705;28;20840;-80
2020/12/01 13:34:43;;;;;;;57.55;43.58;;;5.40;95.90;;;;;;5102171;28;20412;-80
2020/12/01 13:37:09;;;;;;;56.33;42.30;;;5.30;95.80;;;;;;5110318;28;20420;-81
2020/12/01 13:39:36;;;;;;;53.13;40.20;;;5.30;95.70;;;;;;5094920;28;20407;-83
2020/12/01 13:42:02;;;;;;;49.65;39.30;;;5.30;95.00;;;;;;5091968;28;20396;-81